Time;durP1;ratioP1;P1;durP2;ratioP2;P2;SDS_P1;SDS_P2;PMS_P1;PMS_P2;Temp;Humidity;BMP_temperature;BMP_pressure;BME280_temperature;BME280_humidity;BME280_pressure;Samples;Min_cycle;Max_cycle;Signal;HPM_P1;HPM_P2
2021/06/08 00:01:34;;;;;;;9.93;5.28;;;18.80;99.90;;;;;;4363096;32;20141;-72
2021/06/08 00:04:00;;;;;;;9.27;4.80;;;18.90;99.90;;;;;;4350360;32;20135;-71
2021/06/08 00:06:26;;;;;;;10.77;4.93;;;19.00;99.90;;;;;;4330639;32;20448;-71
2021/06/08 00:08:52;;;;;;;13.00;6.50;;;19.20;99.90;;;;;;4347558;32;20161;-71
2021/06/08 00:11:20;;;;;;;19.35;8.15;;;18.90;99.90;;;;;;4376947;32;20148;-71
2021/06/08 00:13:49;;;;;;;11.48;5.70;;;19.10;99.90;;;;;;4378717;32;20077;-70
2021/06/08 00:16:16;;;;;;;10.48;5.55;;;19.00;99.90;;;;;;4362060;32;20077;-70
2021/06/08 00:18:43;;;;;;;11.77;5.65;;;18.70;99.90;;;;;;4343566;32;20078;-70
2021/06/08 00:21:09;;;;;;;11.30;5.55;;;18.70;99.90;;;;;;4364959;32;20105;-70
2021/06/08 00:23:35;;;;;;;12.65;6.20;;;18.80;99.90;;;;;;4364663;32;20078;-71
2021/06/08 00:26:02;;;;;;;10.48;5.45;;;19.00;99.90;;;;;;4360234;32;20105;-71
2021/06/08 00:28:28;;;;;;;11.15;5.90;;;19.00;99.90;;;;;;4347248;32;20073;-71
2021/06/08 00:30:54;;;;;;;20.42;6.82;;;19.10;99.90;;;;;;4353345;32;20082;-70
2021/06/08 00:33:21;;;;;;;12.73;5.47;;;19.20;99.90;;;;;;4370619;32;20092;-71
2021/06/08 00:35:47;;;;;;;12.40;6.03;;;19.10;99.90;;;;;;4361551;32;20082;-71
2021/06/08 00:38:13;;;;;;;11.48;6.18;;;19.00;99.90;;;;;;4373068;32;20078;-70
2021/06/08 00:40:43;;;;;;;12.88;6.32;;;19.00;99.90;;;;;;4390370;32;20151;-71
2021/06/08 00:43:10;;;;;;;9.07;5.45;;;18.90;99.90;;;;;;4349518;32;20069;-71
2021/06/08 00:45:36;;;;;;;11.52;5.90;;;19.00;99.90;;;;;;4367080;32;20575;-71
2021/06/08 00:48:03;;;;;;;11.73;5.95;;;19.10;99.90;;;;;;4347015;32;20077;-71
2021/06/08 00:50:29;;;;;;;12.25;5.97;;;19.00;99.90;;;;;;4372374;32;20089;-71
2021/06/08 00:52:55;;;;;;;12.48;5.97;;;19.00;99.90;;;;;;4362673;32;20081;-71
2021/06/08 00:55:21;;;;;;;12.88;5.72;;;19.10;99.90;;;;;;4363646;32;20135;-70
2021/06/08 00:57:51;;;;;;;9.40;4.87;;;19.20;99.90;;;;;;4353094;32;20066;-70
2021/06/08 01:00:17;;;;;;;8.68;4.45;;;19.40;99.90;;;;;;4364054;32;20459;-70
2021/06/08 01:02:44;;;;;;;7.53;4.28;;;19.40;99.90;;;;;;4351940;32;20173;-70
2021/06/08 01:05:11;;;;;;;9.65;5.43;;;19.50;99.90;;;;;;4340109;32;20474;-71
2021/06/08 01:07:38;;;;;;;12.07;5.85;;;19.50;99.90;;;;;;4348280;32;20087;-70
2021/06/08 01:10:06;;;;;;;16.12;5.40;;;19.40;99.90;;;;;;4339520;32;20106;-72
2021/06/08 01:12:32;;;;;;;12.98;5.93;;;19.40;99.90;;;;;;4351784;32;20066;-71
2021/06/08 01:14:59;;;;;;;20.02;6.70;;;19.40;99.90;;;;;;4339268;32;20070;-71
2021/06/08 01:17:25;;;;;;;11.52;4.90;;;19.40;99.90;;;;;;4366827;32;20084;-71
2021/06/08 01:19:55;;;;;;;11.38;4.85;;;19.40;99.90;;;;;;4352102;32;20059;-71
2021/06/08 01:22:21;;;;;;;9.05;4.78;;;19.40;99.90;;;;;;4339744;32;20478;-71
2021/06/08 01:24:48;;;;;;;13.93;5.97;;;19.40;99.90;;;;;;4340282;32;20078;-71
2021/06/08 01:27:14;;;;;;;8.52;5.18;;;19.40;99.90;;;;;;4351512;32;20088;-70
2021/06/08 01:29:40;;;;;;;9.93;5.07;;;19.40;99.90;;;;;;4344819;32;20074;-71
2021/06/08 01:34:46;;;;;;;7.95;4.15;;;19.50;99.90;;;;;;3849911;37;20066;-70
2021/06/08 01:37:14;;;;;;;9.07;4.53;;;19.50;99.90;;;;;;4412032;32;20062;-71
2021/06/08 01:39:40;;;;;;;9.80;4.12;;;19.50;99.90;;;;;;4383364;32;20092;-71
2021/06/08 01:42:07;;;;;;;9.00;4.10;;;19.60;99.90;;;;;;4389984;32;20069;-71
2021/06/08 01:44:33;;;;;;;6.50;4.07;;;19.50;99.90;;;;;;4383767;32;20069;-70
2021/06/08 01:47:00;;;;;;;7.93;3.80;;;19.50;99.90;;;;;;4378773;32;20062;-70
2021/06/08 01:49:26;;;;;;;7.50;4.07;;;19.50;99.90;;;;;;4392684;32;20092;-70
2021/06/08 01:52:16;;;;;;;9.85;4.35;;;19.60;99.90;;;;;;4396407;32;20066;-70
2021/06/08 01:55:13;;;;;;;13.13;5.07;;;19.50;99.90;;;;;;4387072;32;20162;-71
2021/06/08 01:57:43;;;;;;;8.43;3.97;;;19.50;99.90;;;;;;4377815;32;20084;-71
2021/06/08 02:00:28;;;;;;;8.65;4.32;;;19.50;99.90;;;;;;4375352;32;20524;-72
2021/06/08 02:03:40;;;;;;;8.00;3.50;;;19.50;99.90;;;;;;4399704;32;20179;-71
2021/06/08 02:06:36;;;;;;;11.68;5.15;;;19.50;99.90;;;;;;4395281;32;20425;-71
2021/06/08 02:09:23;;;;;;;8.63;4.25;;;19.40;99.90;;;;;;4363513;32;20507;-71
2021/06/08 02:11:57;;;;;;;9.45;4.43;;;19.40;99.90;;;;;;4382814;32;20085;-71
2021/06/08 02:14:31;;;;;;;11.60;4.45;;;19.50;99.90;;;;;;4394180;32;20086;-71
2021/06/08 02:17:26;;;;;;;7.47;4.03;;;19.60;99.90;;;;;;4376487;32;20076;-71
2021/06/08 02:19:56;;;;;;;8.23;5.00;;;19.70;99.90;;;;;;4380734;32;20550;-70
2021/06/08 02:22:23;;;;;;;11.90;5.07;;;19.50;99.90;;;;;;4372575;32;20161;-71
2021/06/08 02:24:50;;;;;;;9.25;5.10;;;19.50;99.90;;;;;;4375206;32;20078;-71
2021/06/08 02:27:16;;;;;;;10.48;4.87;;;19.50;99.90;;;;;;4386084;32;20102;-70
2021/06/08 02:29:46;;;;;;;7.43;4.70;;;19.40;99.90;;;;;;4367835;32;20093;-71
2021/06/08 02:32:12;;;;;;;8.30;4.60;;;19.50;99.90;;;;;;4368095;32;20456;-71
2021/06/08 02:34:39;;;;;;;9.82;4.85;;;19.50;99.90;;;;;;4368226;32;20087;-71
2021/06/08 02:37:05;;;;;;;14.02;7.10;;;19.30;99.90;;;;;;4377204;32;20507;-71
2021/06/08 02:39:31;;;;;;;23.85;11.85;;;19.30;99.90;;;;;;4384801;32;20078;-71
2021/06/08 02:41:57;;;;;;;13.05;8.48;;;19.20;99.90;;;;;;4369121;32;20069;-71
2021/06/08 02:44:23;;;;;;;11.70;7.35;;;19.30;99.90;;;;;;4389305;32;20178;-71
2021/06/08 02:46:51;;;;;;;13.07;6.62;;;19.40;99.90;;;;;;4384091;32;20085;-71
2021/06/08 02:49:18;;;;;;;12.18;6.60;;;19.50;99.90;;;;;;4376498;32;20062;-71
2021/06/08 02:51:45;;;;;;;14.50;8.85;;;19.60;99.90;;;;;;4357929;32;20101;-70
2021/06/08 02:54:12;;;;;;;15.80;9.43;;;19.60;99.90;;;;;;4371032;32;20077;-70
2021/06/08 02:56:38;;;;;;;21.77;9.63;;;19.60;99.90;;;;;;4382439;32;20085;-72
2021/06/08 02:59:06;;;;;;;19.87;8.68;;;19.60;99.90;;;;;;4389282;32;20066;-71
2021/06/08 03:01:33;;;;;;;14.38;8.05;;;19.70;99.90;;;;;;4374468;32;20166;-71
2021/06/08 03:04:01;;;;;;;13.60;7.78;;;19.80;99.90;;;;;;4383973;32;20196;-71
2021/06/08 03:06:49;;;;;;;13.02;7.28;;;19.80;99.90;;;;;;4373524;32;20141;-72
2021/06/08 03:09:16;;;;;;;13.65;7.12;;;19.90;99.90;;;;;;4389261;32;20081;-71
2021/06/08 03:11:51;;;;;;;12.88;7.78;;;20.00;99.90;;;;;;4366396;32;20445;-70
2021/06/08 03:14:19;;;;;;;10.43;6.90;;;20.10;99.90;;;;;;4377907;32;20510;-71
2021/06/08 03:17:07;;;;;;;11.82;7.85;;;20.00;99.90;;;;;;4373625;32;20575;-70
2021/06/08 03:19:34;;;;;;;18.62;9.43;;;20.00;99.90;;;;;;4370960;32;20442;-71
2021/06/08 03:22:06;;;;;;;14.00;8.63;;;20.00;99.90;;;;;;4371388;32;20524;-69
2021/06/08 03:24:33;;;;;;;13.70;8.35;;;20.00;99.90;;;;;;4377513;32;20496;-71
2021/06/08 03:27:00;;;;;;;14.55;8.80;;;20.20;99.90;;;;;;4365408;32;20095;-72
2021/06/08 03:29:26;;;;;;;15.07;8.23;;;20.30;99.90;;;;;;4368422;32;20158;-72
2021/06/08 03:31:53;;;;;;;17.17;8.95;;;20.40;99.90;;;;;;4379670;32;20141;-71
2021/06/08 03:34:19;;;;;;;16.35;9.23;;;20.50;99.90;;;;;;4363319;32;20092;-70
2021/06/08 03:36:53;;;;;;;14.85;9.80;;;20.60;99.90;;;;;;4381027;32;20082;-71
2021/06/08 03:39:21;;;;;;;15.77;8.77;;;20.80;99.90;;;;;;4352137;32;20467;-71
2021/06/08 03:41:48;;;;;;;18.87;9.90;;;20.80;99.90;;;;;;4363613;32;20155;-70
2021/06/08 03:44:15;;;;;;;18.62;11.15;;;20.90;99.90;;;;;;4372420;32;20496;-71
2021/06/08 03:46:43;;;;;;;19.37;11.38;;;21.00;99.90;;;;;;4378500;32;20074;-70
2021/06/08 03:49:10;;;;;;;21.35;12.23;;;20.90;99.90;;;;;;4354139;32;20588;-71
2021/06/08 03:51:36;;;;;;;17.87;9.13;;;21.00;99.90;;;;;;4360809;32;20441;-71
2021/06/08 03:54:03;;;;;;;16.27;9.60;;;21.00;99.90;;;;;;4358748;32;20073;-71
2021/06/08 03:56:29;;;;;;;15.77;9.88;;;21.10;99.90;;;;;;4366877;32;20541;-71
2021/06/08 03:58:56;;;;;;;15.50;9.25;;;21.10;99.90;;;;;;4365225;32;20490;-69
2021/06/08 04:01:23;;;;;;;15.35;7.93;;;21.20;99.90;;;;;;4351256;32;20081;-69
2021/06/08 04:03:50;;;;;;;12.48;7.35;;;21.20;96.80;;;;;;4376095;32;20063;-70
2021/06/08 04:06:18;;;;;;;13.75;7.82;;;21.40;99.60;;;;;;4384915;32;20081;-71
2021/06/08 04:08:45;;;;;;;18.73;9.73;;;21.50;99.30;;;;;;4378804;32;20453;-70
2021/06/08 04:11:11;;;;;;;12.25;6.87;;;21.50;97.30;;;;;;4378339;32;20105;-71
2021/06/08 04:13:40;;;;;;;12.60;7.12;;;21.60;96.70;;;;;;4372689;32;20524;-71
2021/06/08 04:16:09;;;;;;;11.18;6.22;;;21.60;95.60;;;;;;4362302;32;20074;-72
2021/06/08 04:18:36;;;;;;;10.48;6.62;;;21.60;94.30;;;;;;4350549;32;20074;-71
2021/06/08 04:21:03;;;;;;;12.25;6.43;;;21.80;94.40;;;;;;4375702;32;20085;-69
2021/06/08 04:23:30;;;;;;;12.30;6.75;;;21.90;94.80;;;;;;4367491;32;20162;-71
2021/06/08 04:25:56;;;;;;;16.37;6.85;;;22.00;95.60;;;;;;4383809;32;20059;-72
2021/06/08 04:28:23;;;;;;;8.40;4.97;;;22.70;92.90;;;;;;4384872;32;20512;-71
2021/06/08 04:30:50;;;;;;;7.00;4.20;;;24.90;68.70;;;;;;4352610;32;20134;-71
2021/06/08 04:33:27;;;;;;;9.90;4.43;;;26.00;56.10;;;;;;4387603;32;20678;-71
2021/06/08 04:35:53;;;;;;;6.35;3.55;;;27.10;51.20;;;;;;4357994;32;20058;-71
2021/06/08 04:38:20;;;;;;;5.15;3.50;;;27.60;43.30;;;;;;4380540;32;20069;-71
2021/06/08 04:43:25;;;;;;;7.78;3.60;;;28.80;39.70;;;;;;3817279;37;20055;-71
2021/06/08 04:45:52;;;;;;;6.90;3.45;;;27.00;41.30;;;;;;4348228;32;20085;-72
2021/06/08 04:48:22;;;;;;;6.50;3.30;;;27.00;44.00;;;;;;4360504;32;20174;-70
2021/06/08 04:50:55;;;;;;;5.40;3.42;;;27.40;41.40;;;;;;4360733;32;20082;-70
2021/06/08 04:53:22;;;;;;;9.18;3.35;;;28.20;39.60;;;;;;4352097;32;20110;-71
2021/06/08 04:55:49;;;;;;;4.95;2.97;;;28.40;36.40;;;;;;4358620;32;20076;-71
2021/06/08 04:58:15;;;;;;;6.55;2.78;;;27.40;39.60;;;;;;4351278;32;20183;-72
2021/06/08 05:01:19;;;;;;;8.10;2.90;;;27.80;39.40;;;;;;4344650;32;20067;-71
2021/06/08 05:03:49;;;;;;;6.22;2.50;;;27.70;38.20;;;;;;4370887;32;20070;-72
2021/06/08 05:06:26;;;;;;;4.85;2.50;;;28.80;36.00;;;;;;4336869;32;20151;-71
2021/06/08 05:09:05;;;;;;;3.67;2.20;;;28.50;34.80;;;;;;4360729;32;20074;-72
2021/06/08 05:11:45;;;;;;;4.85;2.30;;;28.50;34.50;;;;;;4346728;32;20063;-71
2021/06/08 05:14:13;;;;;;;3.30;2.10;;;29.00;34.40;;;;;;4364523;32;20151;-71
2021/06/08 05:16:41;;;;;;;3.40;2.50;;;28.80;31.20;;;;;;4357164;32;20105;-71
2021/06/08 05:19:08;;;;;;;5.35;2.28;;;28.60;33.80;;;;;;4362902;32;20054;-73
2021/06/08 05:21:36;;;;;;;2.22;2.00;;;28.50;31.60;;;;;;4326029;32;20456;-71
2021/06/08 05:24:04;;;;;;;3.70;1.90;;;28.50;29.80;;;;;;4343324;32;20073;-71
2021/06/08 05:26:31;;;;;;;2.75;1.62;;;28.40;30.70;;;;;;4339854;32;20492;-70
2021/06/08 05:28:57;;;;;;;4.40;1.83;;;28.30;30.40;;;;;;4350939;32;20516;-72
2021/06/08 05:31:23;;;;;;;4.22;1.85;;;28.80;28.70;;;;;;4334014;32;20177;-72
2021/06/08 05:33:51;;;;;;;2.53;1.67;;;29.20;27.80;;;;;;4366453;32;20065;-73
2021/06/08 05:36:17;;;;;;;2.50;1.58;;;29.20;27.00;;;;;;4355315;32;20142;-72
2021/06/08 05:38:46;;;;;;;3.12;1.90;;;29.30;26.90;;;;;;4359714;32;20093;-72
2021/06/08 05:41:14;;;;;;;2.12;1.73;;;29.00;26.70;;;;;;4359584;32;20097;-69
2021/06/08 05:43:41;;;;;;;3.22;1.67;;;29.50;25.90;;;;;;4353052;32;20080;-70
2021/06/08 05:46:09;;;;;;;3.35;1.70;;;29.30;27.40;;;;;;4353860;32;20488;-70
2021/06/08 05:48:36;;;;;;;1.77;1.50;;;29.90;25.30;;;;;;4349461;32;20058;-71
2021/06/08 05:51:04;;;;;;;3.50;1.98;;;29.80;25.40;;;;;;4355703;32;20505;-68
2021/06/08 05:53:30;;;;;;;3.62;1.70;;;29.10;25.10;;;;;;4352818;32;20082;-72
2021/06/08 05:55:57;;;;;;;2.35;1.60;;;30.20;24.90;;;;;;4343849;32;20174;-69
2021/06/08 05:58:28;;;;;;;2.15;1.70;;;29.30;26.60;;;;;;4359683;32;20145;-73
2021/06/08 06:00:56;;;;;;;2.10;1.48;;;29.60;25.90;;;;;;4347485;32;20054;-72
2021/06/08 06:03:23;;;;;;;3.15;1.60;;;29.30;26.10;;;;;;4345956;32;20086;-70
2021/06/08 06:05:50;;;;;;;3.05;1.85;;;30.50;24.80;;;;;;4338853;32;20077;-70
2021/06/08 06:08:16;;;;;;;2.87;1.77;;;30.90;23.70;;;;;;4338004;32;20058;-72
2021/06/08 06:10:43;;;;;;;2.42;1.60;;;29.60;24.20;;;;;;4339560;32;20070;-69
2021/06/08 06:13:17;;;;;;;3.22;1.65;;;30.10;25.90;;;;;;4333617;32;20106;-71
2021/06/08 06:15:47;;;;;;;2.95;1.60;;;30.80;24.20;;;;;;4353288;32;20090;-71
2021/06/08 06:18:18;;;;;;;2.17;1.60;;;30.00;24.40;;;;;;4345596;32;20477;-72
2021/06/08 06:20:46;;;;;;;5.90;2.42;;;30.20;24.70;;;;;;4338113;32;20074;-70
2021/06/08 06:23:19;;;;;;;2.97;1.70;;;29.80;25.80;;;;;;4340977;32;20506;-70
2021/06/08 06:25:45;;;;;;;1.92;1.60;;;29.40;25.20;;;;;;4333177;32;20573;-72
2021/06/08 06:28:13;;;;;;;2.30;1.75;;;28.50;26.20;;;;;;4336501;32;20072;-70
2021/06/08 06:30:40;;;;;;;2.95;1.50;;;28.00;27.90;;;;;;4350147;32;20090;-70
2021/06/08 06:33:06;;;;;;;2.15;1.75;;;28.20;28.00;;;;;;4359629;32;20082;-71
2021/06/08 06:35:34;;;;;;;2.33;1.83;;;28.40;27.70;;;;;;4339856;32;20099;-68
2021/06/08 06:38:05;;;;;;;3.78;1.85;;;29.20;28.20;;;;;;4349604;32;20144;-70
2021/06/08 06:40:33;;;;;;;4.18;1.90;;;28.80;26.80;;;;;;4335158;32;20066;-69
2021/06/08 06:43:02;;;;;;;2.10;1.80;;;28.10;28.30;;;;;;4349627;32;20078;-70
2021/06/08 06:45:30;;;;;;;3.20;2.08;;;28.30;27.90;;;;;;4337166;32;20524;-68
2021/06/08 06:48:04;;;;;;;2.05;1.62;;;27.60;27.50;;;;;;4324277;32;20445;-69
2021/06/08 06:50:36;;;;;;;2.37;1.90;;;28.20;27.30;;;;;;4350619;32;20525;-69
2021/06/08 06:53:03;;;;;;;2.62;1.67;;;28.50;27.20;;;;;;4345300;32;20067;-69
2021/06/08 06:55:29;;;;;;;2.80;1.70;;;28.50;26.80;;;;;;4337094;32;20081;-69
2021/06/08 06:57:56;;;;;;;2.12;1.77;;;28.20;27.20;;;;;;4359739;32;20575;-67
2021/06/08 07:00:23;;;;;;;4.72;1.92;;;28.40;27.80;;;;;;4324666;32;20145;-68
2021/06/08 07:02:50;;;;;;;4.25;1.62;;;28.70;27.50;;;;;;4347533;32;20090;-70
2021/06/08 07:05:18;;;;;;;2.55;1.70;;;27.80;27.80;;;;;;4325609;32;20182;-70
2021/06/08 07:07:45;;;;;;;2.35;1.55;;;27.90;28.10;;;;;;4340804;32;20141;-69
2021/06/08 07:10:16;;;;;;;2.45;1.73;;;28.00;29.20;;;;;;4323320;32;20074;-70
2021/06/08 07:12:42;;;;;;;1.85;1.50;;;28.50;28.10;;;;;;4351808;32;20097;-71
2021/06/08 07:15:10;;;;;;;2.20;1.80;;;28.90;28.30;;;;;;4350753;32;20125;-71
2021/06/08 07:17:37;;;;;;;3.12;1.83;;;29.60;27.00;;;;;;4347635;32;20522;-70
2021/06/08 07:20:05;;;;;;;5.50;1.90;;;29.60;25.60;;;;;;4349599;32;20078;-72
2021/06/08 07:22:33;;;;;;;2.28;1.75;;;29.20;26.00;;;;;;4335816;32;20559;-72
2021/06/08 07:25:03;;;;;;;2.80;1.80;;;29.80;25.60;;;;;;4324971;32;20051;-71
2021/06/08 07:27:29;;;;;;;5.82;2.30;;;29.10;25.70;;;;;;4347443;32;20140;-71
2021/06/08 07:29:56;;;;;;;2.83;1.85;;;29.40;26.30;;;;;;4350922;32;20082;-71
2021/06/08 07:32:39;;;;;;;2.90;1.73;;;29.20;25.90;;;;;;4349179;32;20093;-70
2021/06/08 07:35:28;;;;;;;5.25;2.20;;;28.80;26.70;;;;;;4362061;32;20070;-69
2021/06/08 07:37:54;;;;;;;2.67;2.00;;;29.10;26.60;;;;;;4337933;32;20078;-70
2021/06/08 07:40:44;;;;;;;2.12;1.67;;;28.80;26.40;;;;;;4338378;32;20100;-72
2021/06/08 07:43:11;;;;;;;2.72;1.92;;;28.10;27.80;;;;;;4337524;32;20071;-72
2021/06/08 07:45:49;;;;;;;2.42;1.75;;;28.00;27.90;;;;;;4333705;32;20199;-72
2021/06/08 07:48:17;;;;;;;2.33;1.77;;;28.10;27.50;;;;;;4342202;32;20070;-69
2021/06/08 07:50:49;;;;;;;2.95;1.92;;;28.00;27.20;;;;;;4334886;33;20147;-69
2021/06/08 07:53:20;;;;;;;5.12;2.42;;;28.20;29.00;;;;;;4326963;32;20078;-72
2021/06/08 07:55:47;;;;;;;3.85;2.45;;;27.80;27.80;;;;;;4327101;33;20141;-72
2021/06/08 07:58:13;;;;;;;2.90;2.12;;;27.40;28.10;;;;;;4334964;32;20081;-73
2021/06/08 08:00:39;;;;;;;4.65;2.50;;;27.40;28.20;;;;;;4328843;32;20074;-71
2021/06/08 08:06:11;;;;;;;5.20;3.28;;;26.80;32.30;;;;;;4300227;33;20115;-70
2021/06/08 08:08:39;;;;;;;5.28;3.10;;;26.40;39.00;;;;;;4286105;33;20558;-73
2021/06/08 08:11:09;;;;;;;5.75;3.28;;;26.20;35.80;;;;;;4304258;32;20074;-72
2021/06/08 08:13:36;;;;;;;5.62;3.08;;;26.20;38.90;;;;;;4320081;32;20458;-74
2021/06/08 08:16:05;;;;;;;5.20;2.90;;;26.20;41.10;;;;;;4298450;32;20055;-75
2021/06/08 08:18:36;;;;;;;9.10;2.70;;;26.20;46.20;;;;;;4306487;32;20070;-72
2021/06/08 08:21:04;;;;;;;4.57;2.90;;;25.90;43.10;;;;;;4338693;32;20524;-68
2021/06/08 08:23:30;;;;;;;10.98;4.18;;;25.80;42.80;;;;;;4344252;32;20461;-73
2021/06/08 08:25:58;;;;;;;8.52;3.33;;;25.80;42.40;;;;;;4310491;32;20165;-73
2021/06/08 08:28:25;;;;;;;3.80;2.40;;;25.90;42.80;;;;;;4309389;32;20523;-72
2021/06/08 08:30:58;;;;;;;4.85;2.45;;;25.90;39.30;;;;;;4315834;32;20110;-72
2021/06/08 08:33:26;;;;;;;7.35;3.30;;;25.30;45.30;;;;;;4322363;32;20647;-72
2021/06/08 08:35:53;;;;;;;3.45;2.10;;;24.50;45.20;;;;;;4348917;32;20142;-72
2021/06/08 08:38:19;;;;;;;2.25;2.05;;;24.70;40.70;;;;;;4331272;32;20551;-75
2021/06/08 08:40:46;;;;;;;5.78;2.83;;;25.10;41.70;;;;;;4329049;32;20178;-75
2021/06/08 08:43:12;;;;;;;7.70;2.22;;;24.90;46.00;;;;;;4347214;32;20129;-74
2021/06/08 08:45:39;;;;;;;9.32;3.15;;;25.40;45.00;;;;;;4320007;32;20098;-73
2021/06/08 08:48:06;;;;;;;8.02;3.10;;;25.20;50.00;;;;;;4314566;32;20090;-70
2021/06/08 08:50:32;;;;;;;4.28;2.70;;;25.00;51.00;;;;;;4342303;32;20143;-72
2021/06/08 08:53:04;;;;;;;5.25;2.83;;;25.20;46.90;;;;;;4328683;32;20172;-68
2021/06/08 08:55:34;;;;;;;4.18;2.53;;;25.00;40.40;;;;;;4348186;32;20174;-70
2021/06/08 08:58:02;;;;;;;4.37;2.50;;;25.20;42.20;;;;;;4318172;32;20071;-71
2021/06/08 09:00:30;;;;;;;4.12;2.85;;;25.30;43.50;;;;;;4321081;32;20102;-71
2021/06/08 09:02:58;;;;;;;5.45;2.50;;;25.50;41.40;;;;;;4332477;32;20086;-71
2021/06/08 09:05:25;;;;;;;5.53;2.60;;;26.00;44.10;;;;;;4319508;32;20126;-67
2021/06/08 09:07:51;;;;;;;4.60;2.40;;;26.00;43.00;;;;;;4334454;32;20075;-69
2021/06/08 09:10:19;;;;;;;6.15;2.70;;;26.00;41.20;;;;;;4312340;32;20114;-68
2021/06/08 09:12:45;;;;;;;6.12;3.30;;;26.10;40.10;;;;;;4332562;32;20109;-69
2021/06/08 09:15:11;;;;;;;8.55;2.97;;;26.00;40.10;;;;;;4326848;32;20152;-70
2021/06/08 09:17:40;;;;;;;6.78;3.00;;;25.90;42.10;;;;;;4334713;33;20445;-72
2021/06/08 09:20:13;;;;;;;5.03;2.70;;;25.50;58.60;;;;;;4343499;32;20075;-71
2021/06/08 09:22:50;;;;;;;3.37;2.35;;;25.30;61.60;;;;;;4322449;32;20087;-70
2021/06/08 09:25:39;;;;;;;3.05;2.30;;;25.20;54.90;;;;;;4346879;32;20079;-71
2021/06/08 09:28:24;;;;;;;2.25;2.00;;;25.80;38.20;;;;;;4341707;32;20146;-72
2021/06/08 09:31:20;;;;;;;5.05;2.47;;;26.20;42.70;;;;;;4361883;32;20090;-74
2021/06/08 09:36:39;;;;;;;6.20;3.20;;;26.00;43.10;;;;;;4328838;32;20075;-72
2021/06/08 09:39:06;;;;;;;10.05;4.30;;;26.00;44.70;;;;;;4337839;32;20130;-69
2021/06/08 09:41:40;;;;;;;7.70;4.20;;;26.00;46.70;;;;;;4335553;32;20071;-71
2021/06/08 09:44:15;;;;;;;14.75;6.90;;;26.20;50.90;;;;;;4349374;32;20098;-69
2021/06/08 09:46:53;;;;;;;15.85;7.57;;;26.20;48.00;;;;;;4353576;32;20552;-69
2021/06/08 09:49:40;;;;;;;18.85;8.45;;;26.20;49.10;;;;;;4349682;32;20063;-70
2021/06/08 09:52:08;;;;;;;16.73;7.68;;;26.10;44.60;;;;;;4333034;32;20440;-73
2021/06/08 09:54:45;;;;;;;15.80;8.18;;;26.40;46.90;;;;;;4361032;32;20081;-69
2021/06/08 09:57:32;;;;;;;14.90;7.18;;;26.70;42.30;;;;;;4337103;32;20074;-68
2021/06/08 10:00:03;;;;;;;;;;;27.40;44.40;;;;;;4346988;32;20121;-70
2021/06/08 10:02:48;;;;;;;18.90;6.57;;;27.40;40.40;;;;;;4358656;32;20399;-69
2021/06/08 10:05:24;;;;;;;12.27;6.20;;;27.90;37.10;;;;;;4352267;32;20078;-71
2021/06/08 10:07:59;;;;;;;;;;;28.20;36.20;;;;;;4360243;32;20188;-72
2021/06/08 10:10:34;;;;;;;10.88;4.97;;;28.30;37.00;;;;;;4361445;32;20108;-72
2021/06/08 10:13:03;;;;;;;6.12;3.35;;;28.30;35.40;;;;;;4347797;32;20059;-69
2021/06/08 10:15:53;;;;;;;5.18;3.10;;;28.50;30.20;;;;;;4332706;32;20090;-68
2021/06/08 10:18:20;;;;;;;5.53;3.15;;;28.80;29.20;;;;;;4337737;32;20074;-70
2021/06/08 10:20:52;;;;;;;7.03;3.20;;;28.60;28.20;;;;;;4335378;32;20102;-70
2021/06/08 10:23:27;;;;;;;6.37;3.35;;;28.30;29.80;;;;;;4341180;32;20202;-65
2021/06/08 10:26:03;;;;;;;4.55;3.12;;;27.70;30.40;;;;;;4365134;32;20478;-64
2021/06/08 10:28:30;;;;;;;6.57;3.22;;;28.40;29.60;;;;;;4340081;32;20087;-65
2021/06/08 10:30:57;;;;;;;6.97;3.95;;;29.10;28.20;;;;;;4327501;32;20081;-65
2021/06/08 10:33:24;;;;;;;5.62;2.95;;;29.00;28.80;;;;;;4349029;32;20488;-65
2021/06/08 10:35:51;;;;;;;6.10;3.47;;;28.70;29.00;;;;;;4354428;32;20547;-65
2021/06/08 10:38:17;;;;;;;5.03;3.05;;;28.80;30.90;;;;;;4342902;32;20121;-64
2021/06/08 10:40:46;;;;;;;6.15;3.08;;;28.40;28.90;;;;;;4346179;32;20145;-66
2021/06/08 10:43:18;;;;;;;8.10;3.17;;;27.50;32.00;;;;;;4357026;32;20060;-65
2021/06/08 10:45:44;;;;;;;8.20;3.20;;;27.40;34.20;;;;;;4345722;32;20062;-65
2021/06/08 10:48:20;;;;;;;6.95;2.80;;;27.20;34.80;;;;;;4326391;32;20066;-65
2021/06/08 10:50:49;;;;;;;;;;;27.50;32.40;;;;;;4340240;32;20245;-65
2021/06/08 10:53:44;;;;;;;5.03;2.87;;;27.70;32.10;;;;;;4349502;32;19961;-72
2021/06/08 10:56:34;;;;;;;6.10;2.92;;;28.00;31.10;;;;;;4347506;32;20081;-71
2021/06/08 10:59:05;;;;;;;4.90;2.80;;;27.60;30.40;;;;;;4357085;32;20077;-68
2021/06/08 11:01:35;;;;;;;5.75;2.80;;;28.00;30.90;;;;;;4348880;32;20073;-71
2021/06/08 11:04:28;;;;;;;4.47;2.70;;;28.50;31.20;;;;;;4337468;32;20445;-71
2021/06/08 11:06:57;;;;;;;4.85;2.70;;;29.00;28.60;;;;;;4324534;32;20094;-70
2021/06/08 11:09:23;;;;;;;5.07;2.42;;;27.70;28.00;;;;;;4345337;32;20061;-69
2021/06/08 11:11:55;;;;;;;3.92;2.40;;;27.90;28.40;;;;;;4364768;32;20093;-72
2021/06/08 11:17:13;;;;;;;2.95;2.08;;;28.90;27.70;;;;;;4362365;32;20078;-71
2021/06/08 11:19:56;;;;;;;3.10;2.08;;;29.20;26.60;;;;;;4360314;32;20090;-69
2021/06/08 11:22:55;;;;;;;4.95;2.85;;;29.60;25.80;;;;;;4360420;32;20152;-74
2021/06/08 11:25:42;;;;;;;4.78;2.72;;;29.30;25.70;;;;;;4353146;32;20089;-68
2021/06/08 11:28:17;;;;;;;5.95;3.78;;;29.40;25.00;;;;;;4347639;32;20101;-69
2021/06/08 11:31:10;;;;;;;8.13;3.60;;;28.80;27.00;;;;;;4349268;32;20430;-69
2021/06/08 11:33:39;;;;;;;4.60;2.40;;;28.80;30.60;;;;;;4350388;32;20524;-70
2021/06/08 11:36:24;;;;;;;6.28;3.00;;;29.10;30.10;;;;;;4327980;32;20104;-70
2021/06/08 11:38:52;;;;;;;3.65;2.53;;;28.80;30.90;;;;;;4361976;32;20074;-70
2021/06/08 11:41:18;;;;;;;4.82;2.37;;;28.90;31.20;;;;;;4349397;32;20105;-69
2021/06/08 11:43:48;;;;;;;5.45;2.62;;;29.10;31.40;;;;;;4328975;32;20103;-72
2021/06/08 11:46:29;;;;;;;4.80;2.15;;;28.60;31.40;;;;;;4359298;32;20077;-70
2021/06/08 11:49:18;;;;;;;3.47;2.30;;;28.10;32.30;;;;;;4355466;32;20094;-70
2021/06/08 11:52:05;;;;;;;3.37;2.30;;;28.40;31.30;;;;;;4338519;32;20176;-72
2021/06/08 11:54:31;;;;;;;2.97;2.15;;;28.60;31.20;;;;;;4344004;32;20078;-72
2021/06/08 11:56:58;;;;;;;5.32;2.17;;;28.30;32.70;;;;;;4362134;32;20098;-71
2021/06/08 11:59:44;;;;;;;3.28;2.17;;;28.60;31.50;;;;;;4355361;32;20086;-72
2021/06/08 12:02:26;;;;;;;;;;;28.00;32.50;;;;;;4339690;32;20486;-72
2021/06/08 12:05:17;;;;;;;3.87;2.30;;;28.50;32.20;;;;;;4351681;32;20013;-69
2021/06/08 12:08:13;;;;;;;3.80;2.03;;;29.00;32.00;;;;;;4348657;32;20058;-68
2021/06/08 12:10:43;;;;;;;3.53;2.05;;;28.70;31.00;;;;;;4349002;32;20504;-71
2021/06/08 12:13:10;;;;;;;3.83;2.05;;;27.80;31.80;;;;;;4321035;32;20110;-70
2021/06/08 12:15:57;;;;;;;4.82;2.28;;;28.00;32.50;;;;;;4342125;32;20130;-71
2021/06/08 12:18:34;;;;;;;2.28;2.08;;;28.20;32.00;;;;;;4334009;32;20075;-70
2021/06/08 12:21:01;;;;;;;2.92;1.83;;;27.90;31.90;;;;;;4325202;32;20070;-71
2021/06/08 12:23:36;;;;;;;2.53;1.92;;;27.50;31.50;;;;;;4332042;32;20137;-71
2021/06/08 12:26:22;;;;;;;4.00;2.00;;;28.00;31.50;;;;;;4365476;32;20449;-69
2021/06/08 12:29:07;;;;;;;1.87;1.77;;;27.80;31.10;;;;;;4335871;32;20080;-72
2021/06/08 12:31:35;;;;;;;3.93;2.00;;;28.30;30.00;;;;;;4354826;32;20141;-71
2021/06/08 12:34:09;;;;;;;2.78;2.10;;;27.80;31.10;;;;;;4346567;32;20490;-70
2021/06/08 12:36:43;;;;;;;2.60;2.00;;;27.20;30.80;;;;;;4353036;32;20160;-69
2021/06/08 12:39:17;;;;;;;2.55;1.98;;;27.60;32.80;;;;;;4355814;32;20552;-69
2021/06/08 12:41:44;;;;;;;2.62;2.12;;;27.50;29.30;;;;;;4361448;32;20528;-69
2021/06/08 12:44:11;;;;;;;2.85;2.10;;;28.10;30.90;;;;;;4343455;32;20071;-68
2021/06/08 12:46:39;;;;;;;3.90;1.90;;;28.10;30.20;;;;;;4332385;32;20094;-67
2021/06/08 12:49:16;;;;;;;3.55;1.80;;;27.60;29.30;;;;;;4333751;32;20201;-66
2021/06/08 12:51:53;;;;;;;3.25;2.08;;;27.70;29.30;;;;;;4354687;32;20461;-66
2021/06/08 12:54:43;;;;;;;2.50;1.73;;;28.60;27.90;;;;;;4347851;32;20596;-71
2021/06/08 12:57:27;;;;;;;3.08;1.65;;;28.20;27.10;;;;;;4336419;32;20117;-71
2021/06/08 13:00:03;;;;;;;2.37;1.58;;;27.80;28.60;;;;;;4346267;32;20488;-69
2021/06/08 13:02:29;;;;;;;7.30;1.87;;;27.90;28.50;;;;;;4342290;32;20074;-69
2021/06/08 13:04:59;;;;;;;1.55;1.42;;;28.20;28.10;;;;;;4341161;32;20081;-74
2021/06/08 13:07:28;;;;;;;1.70;1.40;;;28.10;27.40;;;;;;4322128;32;20114;-71
2021/06/08 13:10:12;;;;;;;1.52;1.25;;;28.00;27.10;;;;;;4336187;32;20082;-71
2021/06/08 13:12:44;;;;;;;3.87;1.80;;;28.90;26.40;;;;;;4348101;32;20058;-72
2021/06/08 13:15:12;;;;;;;2.33;1.85;;;29.00;26.50;;;;;;4347311;32;20082;-72
2021/06/08 13:17:39;;;;;;;3.60;1.90;;;28.80;27.40;;;;;;4360238;32;20174;-71
2021/06/08 13:20:26;;;;;;;4.32;2.22;;;29.00;25.60;;;;;;4355845;32;20062;-69